Time;durP1;ratioP1;P1;durP2;ratioP2;P2;SDS_P1;SDS_P2;PMS_P1;PMS_P2;Temp;Humidity;BMP_temperature;BMP_pressure;BME280_temperature;BME280_humidity;BME280_pressure;Samples;Min_cycle;Max_cycle;Signal;HPM_P1;HPM_P2
2023/01/30 00:01:48;;;;;;;9.20;4.45;;;6.30;90.70;;;;;;7402913;19;19914;-76
2023/01/30 00:04:13;;;;;;;7.43;3.97;;;6.30;90.80;;;;;;7400621;19;19943;-76
2023/01/30 00:06:40;;;;;;;8.55;3.55;;;6.30;90.80;;;;;;7401112;19;19918;-75
2023/01/30 00:09:09;;;;;;;8.45;4.05;;;6.30;90.80;;;;;;7395672;19;20007;-75
2023/01/30 00:11:35;;;;;;;8.05;3.75;;;6.20;90.60;;;;;;7399854;19;20364;-75
2023/01/30 00:14:01;;;;;;;7.10;3.22;;;6.30;90.80;;;;;;7397879;19;19914;-74
2023/01/30 00:16:26;;;;;;;8.40;3.90;;;6.40;90.50;;;;;;7402343;19;19928;-75
2023/01/30 00:18:52;;;;;;;7.30;3.55;;;6.40;90.50;;;;;;7382747;19;19919;-74
2023/01/30 00:21:18;;;;;;;8.15;3.90;;;6.50;90.30;;;;;;7404891;19;19990;-75
2023/01/30 00:23:44;;;;;;;8.35;3.85;;;6.40;90.40;;;;;;7408383;19;20262;-75
2023/01/30 00:26:10;;;;;;;8.10;4.53;;;6.50;90.50;;;;;;7401859;19;19915;-75
2023/01/30 00:28:38;;;;;;;8.93;4.68;;;6.40;90.50;;;;;;7404315;19;19922;-75
2023/01/30 00:31:05;;;;;;;7.30;3.38;;;6.40;90.60;;;;;;7403974;19;19914;-75
2023/01/30 00:33:31;;;;;;;7.13;3.33;;;6.30;90.70;;;;;;7408093;19;19938;-74
2023/01/30 00:35:57;;;;;;;7.68;3.40;;;6.30;90.80;;;;;;7404937;19;19922;-75
2023/01/30 00:38:23;;;;;;;8.15;4.15;;;6.30;90.80;;;;;;7403706;19;19935;-76
2023/01/30 00:40:49;;;;;;;7.95;4.30;;;6.30;90.80;;;;;;7398780;19;19934;-74
2023/01/30 00:48:49;;;;;;;8.00;3.97;;;6.20;90.90;;;;;;7373899;19;19999;-74
2023/01/30 00:51:16;;;;;;;8.98;4.43;;;6.10;91.10;;;;;;7400520;19;19918;-75
2023/01/30 00:53:42;;;;;;;8.02;4.13;;;6.20;91.00;;;;;;7403955;19;19918;-75
2023/01/30 00:56:08;;;;;;;9.50;4.18;;;6.10;91.00;;;;;;7401714;19;19971;-74
2023/01/30 00:58:33;;;;;;;8.70;3.67;;;6.10;91.10;;;;;;7405098;19;19936;-74
2023/01/30 01:00:59;;;;;;;8.57;3.85;;;6.10;91.00;;;;;;7403103;19;19939;-75
2023/01/30 01:03:25;;;;;;;8.48;4.15;;;6.10;91.10;;;;;;7402601;19;20505;-76
2023/01/30 01:05:51;;;;;;;8.10;4.63;;;6.10;91.10;;;;;;7404055;19;19914;-74
2023/01/30 01:08:16;;;;;;;8.85;4.45;;;6.10;91.10;;;;;;7403976;19;20235;-75
2023/01/30 01:10:42;;;;;;;9.82;4.72;;;6.10;91.30;;;;;;7381755;19;20307;-74
2023/01/30 01:13:09;;;;;;;8.70;3.83;;;6.00;91.40;;;;;;7402971;19;19915;-73
2023/01/30 01:15:35;;;;;;;8.02;4.15;;;6.00;91.40;;;;;;7402285;19;19911;-74
2023/01/30 01:18:01;;;;;;;10.20;4.55;;;6.00;91.60;;;;;;7403449;19;19921;-74
2023/01/30 01:20:27;;;;;;;9.40;4.45;;;6.00;91.50;;;;;;7406299;19;20267;-74
2023/01/30 01:22:54;;;;;;;8.10;4.07;;;5.90;91.50;;;;;;7409202;19;19922;-73
2023/01/30 01:25:20;;;;;;;;;;;5.90;91.50;;;;;;7411478;19;19926;-74
2023/01/30 01:27:47;;;;;;;11.27;4.63;;;5.90;91.60;;;;;;7409504;19;19921;-74
2023/01/30 01:30:13;;;;;;;8.20;4.10;;;5.90;91.80;;;;;;7407223;19;19921;-74
2023/01/30 01:32:39;;;;;;;7.72;3.83;;;5.90;91.90;;;;;;7409232;19;19948;-74
2023/01/30 01:35:05;;;;;;;7.88;4.10;;;6.00;91.70;;;;;;7407842;19;19923;-74
2023/01/30 01:37:31;;;;;;;9.20;4.32;;;6.00;91.80;;;;;;7409395;19;19926;-75
2023/01/30 01:42:41;;;;;;;7.85;4.00;;;5.90;92.00;;;;;;7385067;19;19925;-74
2023/01/30 01:45:10;;;;;;;9.55;4.55;;;5.90;91.90;;;;;;7375464;19;19985;-75
2023/01/30 01:47:40;;;;;;;6.63;3.65;;;5.80;92.00;;;;;;7408327;19;19918;-73
2023/01/30 01:50:21;;;;;;;9.38;4.28;;;5.80;92.10;;;;;;7406498;19;19914;-74
2023/01/30 01:52:49;;;;;;;7.55;3.97;;;5.80;92.10;;;;;;7375368;19;19922;-73
2023/01/30 01:55:16;;;;;;;8.30;4.30;;;5.80;92.10;;;;;;7407655;19;19918;-74
2023/01/30 01:57:47;;;;;;;8.15;4.10;;;5.80;92.10;;;;;;7408441;19;20318;-73
2023/01/30 02:00:16;;;;;;;9.65;4.35;;;5.70;92.10;;;;;;7406841;19;19995;-73
2023/01/30 02:02:52;;;;;;;9.43;4.25;;;5.80;92.40;;;;;;7406859;19;19911;-73
2023/01/30 02:05:19;;;;;;;8.20;4.03;;;5.70;92.10;;;;;;7374681;19;19956;-74
2023/01/30 02:07:58;;;;;;;9.40;4.10;;;5.70;92.20;;;;;;7408780;19;19911;-74
2023/01/30 02:10:40;;;;;;;7.38;3.47;;;5.70;92.20;;;;;;7406688;19;19918;-74
2023/01/30 02:13:05;;;;;;;6.35;3.15;;;5.70;92.30;;;;;;7401440;19;19922;-74
2023/01/30 02:15:32;;;;;;;8.52;4.53;;;5.60;92.30;;;;;;7409038;19;19943;-73
2023/01/30 02:17:57;;;;;;;8.02;3.65;;;5.60;92.30;;;;;;7410240;19;19915;-74
2023/01/30 02:20:56;;;;;;;12.13;4.50;;;5.70;92.30;;;;;;7407980;19;19950;-74
2023/01/30 02:23:37;;;;;;;7.68;3.33;;;5.60;92.30;;;;;;7408491;19;19910;-73
2023/01/30 02:26:27;;;;;;;8.48;4.05;;;5.70;92.30;;;;;;7405229;19;19927;-75
2023/01/30 02:29:34;;;;;;;6.45;3.03;;;5.70;92.30;;;;;;7408646;19;20342;-73
2023/01/30 02:32:32;;;;;;;10.10;3.72;;;5.60;92.30;;;;;;7405847;19;19928;-75
2023/01/30 02:35:00;;;;;;;7.68;3.47;;;5.60;92.30;;;;;;7400858;19;19918;-74
2023/01/30 02:37:46;;;;;;;8.18;3.45;;;5.60;92.40;;;;;;7407623;19;20358;-74
2023/01/30 02:40:18;;;;;;;;;;;5.60;92.50;;;;;;7402347;19;19934;-74
2023/01/30 02:42:50;;;;;;;8.63;3.75;;;5.60;92.40;;;;;;7405692;19;19919;-74
2023/01/30 02:45:49;;;;;;;8.05;3.78;;;5.60;92.50;;;;;;7402613;19;19919;-74
2023/01/30 02:48:24;;;;;;;8.57;3.95;;;5.50;92.60;;;;;;7402336;19;20317;-75
2023/01/30 02:51:00;;;;;;;8.57;4.03;;;5.40;92.70;;;;;;7404692;19;19945;-74
2023/01/30 02:53:30;;;;;;;8.25;3.35;;;5.40;92.60;;;;;;7403563;19;19924;-74
2023/01/30 02:55:56;;;;;;;9.07;3.72;;;5.50;92.60;;;;;;7402739;19;19919;-75
2023/01/30 02:58:23;;;;;;;8.50;3.67;;;5.40;92.70;;;;;;7403488;19;19960;-74
2023/01/30 03:01:45;;;;;;;9.25;4.47;;;5.40;92.80;;;;;;7402338;19;19926;-74
2023/01/30 03:04:30;;;;;;;9.38;4.60;;;5.30;92.70;;;;;;7401149;19;20375;-73
2023/01/30 03:07:28;;;;;;;9.10;3.35;;;5.40;92.80;;;;;;7403119;19;19919;-75
2023/01/30 03:10:01;;;;;;;7.10;3.25;;;5.40;92.70;;;;;;7401820;19;19918;-75
2023/01/30 03:12:39;;;;;;;9.95;3.97;;;5.40;92.70;;;;;;7405302;19;19982;-75
2023/01/30 03:15:11;;;;;;;12.65;3.88;;;5.40;92.60;;;;;;7403366;19;19919;-73
2023/01/30 03:17:43;;;;;;;9.48;4.20;;;5.40;92.60;;;;;;7407941;19;19918;-74
2023/01/30 03:20:10;;;;;;;9.25;3.65;;;5.40;92.80;;;;;;7403881;19;19914;-75
2023/01/30 03:22:35;;;;;;;8.82;3.28;;;5.40;92.80;;;;;;7406281;19;19918;-73
2023/01/30 03:25:01;;;;;;;7.05;3.75;;;5.40;92.80;;;;;;7409100;19;19944;-74
2023/01/30 03:27:27;;;;;;;8.13;3.47;;;5.30;92.90;;;;;;7408431;19;19922;-74
2023/01/30 03:29:53;;;;;;;8.80;4.70;;;5.30;92.90;;;;;;7407950;19;19989;-74
2023/01/30 03:32:18;;;;;;;7.60;4.15;;;5.30;93.10;;;;;;7404768;19;19922;-74
2023/01/30 03:34:44;;;;;;;9.80;4.40;;;5.30;92.90;;;;;;7408604;19;20325;-73
2023/01/30 03:37:10;;;;;;;8.90;3.72;;;5.30;92.90;;;;;;7403096;19;19911;-74
2023/01/30 03:39:36;;;;;;;9.05;4.13;;;5.30;92.80;;;;;;7403439;19;19922;-73
2023/01/30 03:42:02;;;;;;;8.95;4.22;;;5.30;92.80;;;;;;7403862;19;20428;-74
2023/01/30 03:44:28;;;;;;;8.05;3.90;;;5.20;92.90;;;;;;7406580;19;19919;-74
2023/01/30 03:46:53;;;;;;;7.30;3.55;;;5.20;92.90;;;;;;7406815;19;19922;-74
2023/01/30 03:49:20;;;;;;;8.40;4.60;;;5.20;93.00;;;;;;7405931;19;19917;-74
2023/01/30 03:51:46;;;;;;;9.15;4.53;;;5.10;93.00;;;;;;7405188;19;19939;-74
2023/01/30 03:54:12;;;;;;;9.30;4.22;;;5.20;93.10;;;;;;7399805;19;20612;-74
2023/01/30 03:56:37;;;;;;;9.55;4.45;;;5.10;93.00;;;;;;7405441;19;20007;-74
2023/01/30 03:59:04;;;;;;;7.80;3.70;;;5.10;93.10;;;;;;7405056;19;19922;-74
2023/01/30 04:01:30;;;;;;;9.20;4.13;;;5.10;93.00;;;;;;7383180;19;19929;-75
2023/01/30 04:03:56;;;;;;;8.10;3.38;;;5.00;93.00;;;;;;7404878;19;20312;-74
2023/01/30 04:06:22;;;;;;;7.97;3.15;;;5.10;92.90;;;;;;7406238;19;20023;-74
2023/01/30 04:08:52;;;;;;;8.15;3.72;;;5.10;93.00;;;;;;7406583;19;19918;-74
2023/01/30 04:11:17;;;;;;;9.10;4.00;;;5.00;93.10;;;;;;7405700;19;19926;-73
2023/01/30 04:13:43;;;;;;;8.88;4.05;;;4.90;93.30;;;;;;7403137;19;19919;-74
2023/01/30 04:16:18;;;;;;;7.50;3.65;;;5.00;93.20;;;;;;7401498;19;19907;-74
2023/01/30 04:18:44;;;;;;;8.27;3.90;;;4.90;93.30;;;;;;7374542;19;19915;-74
2023/01/30 04:21:09;;;;;;;7.22;3.58;;;4.90;93.40;;;;;;7372554;19;20389;-74
2023/01/30 04:23:35;;;;;;;10.57;3.22;;;4.80;93.40;;;;;;7405009;19;19970;-75
2023/01/30 04:26:03;;;;;;;7.95;4.45;;;4.80;93.40;;;;;;7405476;19;19910;-74
2023/01/30 04:28:29;;;;;;;8.05;3.97;;;4.80;93.40;;;;;;7403467;19;19915;-74
2023/01/30 04:30:54;;;;;;;7.95;3.60;;;4.80;93.40;;;;;;7405123;19;19942;-74
2023/01/30 04:33:20;;;;;;;8.82;3.85;;;4.80;93.40;;;;;;7403972;19;20410;-74
2023/01/30 04:35:57;;;;;;;9.38;3.65;;;4.80;93.40;;;;;;7406680;19;19922;-74
2023/01/30 04:38:23;;;;;;;7.20;3.40;;;4.80;93.40;;;;;;7402809;19;19938;-74
2023/01/30 04:40:54;;;;;;;9.05;4.03;;;4.80;93.40;;;;;;7403987;19;19926;-75
2023/01/30 04:43:23;;;;;;;7.20;3.38;;;4.80;93.40;;;;;;7401881;19;19974;-76
2023/01/30 04:45:50;;;;;;;8.73;3.63;;;4.90;93.40;;;;;;7405145;19;19918;-74
2023/01/30 04:48:17;;;;;;;6.57;3.38;;;4.80;93.30;;;;;;7402607;19;20259;-74
2023/01/30 04:50:47;;;;;;;9.07;3.70;;;4.80;93.20;;;;;;7403773;19;19919;-74
2023/01/30 04:53:14;;;;;;;7.38;3.35;;;4.90;93.20;;;;;;7401941;19;20342;-74
2023/01/30 04:55:39;;;;;;;7.60;3.00;;;4.80;93.20;;;;;;7404361;19;19919;-74
2023/01/30 04:58:05;;;;;;;7.57;3.53;;;4.90;93.20;;;;;;7402076;19;19938;-74
2023/01/30 05:00:31;;;;;;;9.65;4.13;;;4.90;93.10;;;;;;7407213;19;19982;-75
2023/01/30 05:02:57;;;;;;;7.35;2.95;;;4.90;93.10;;;;;;7402434;19;20343;-74
2023/01/30 05:05:24;;;;;;;7.50;3.20;;;4.90;92.90;;;;;;7402759;19;19948;-74
2023/01/30 05:07:50;;;;;;;7.75;3.85;;;5.00;93.00;;;;;;7405565;19;19930;-73
2023/01/30 05:10:17;;;;;;;6.63;3.30;;;4.90;93.00;;;;;;7404530;19;19923;-74
2023/01/30 05:12:43;;;;;;;9.48;3.55;;;5.00;92.90;;;;;;7402520;19;19911;-76
2023/01/30 05:15:10;;;;;;;7.00;2.95;;;4.90;92.90;;;;;;7404135;19;19939;-75
2023/01/30 05:17:36;;;;;;;5.30;2.67;;;4.90;92.90;;;;;;7405166;19;19914;-74
2023/01/30 05:20:02;;;;;;;6.97;3.35;;;4.90;92.80;;;;;;7404521;19;20362;-76
2023/01/30 05:22:28;;;;;;;8.82;3.40;;;4.90;92.80;;;;;;7402882;19;19922;-74
2023/01/30 05:24:54;;;;;;;6.20;2.63;;;4.90;92.80;;;;;;7405293;19;19943;-74
2023/01/30 05:27:20;;;;;;;7.65;3.70;;;4.90;92.60;;;;;;7405630;19;19950;-74
2023/01/30 05:29:45;;;;;;;7.72;3.40;;;4.90;92.70;;;;;;7405138;19;19941;-75
2023/01/30 05:32:14;;;;;;;6.95;3.20;;;4.90;92.80;;;;;;7403254;19;20500;-75
2023/01/30 05:34:41;;;;;;;7.18;2.70;;;4.80;92.80;;;;;;7402333;19;19918;-75
2023/01/30 05:37:08;;;;;;;7.75;3.03;;;4.90;92.70;;;;;;7398031;19;19910;-75
2023/01/30 05:39:33;;;;;;;7.07;3.25;;;4.80;92.70;;;;;;7403066;19;19911;-75
2023/01/30 05:41:59;;;;;;;6.40;3.35;;;4.90;92.60;;;;;;7370327;19;19922;-75
2023/01/30 05:44:26;;;;;;;7.75;3.72;;;4.80;92.60;;;;;;7401002;19;20346;-74
2023/01/30 05:46:52;;;;;;;7.70;3.70;;;4.90;92.60;;;;;;7400057;19;19981;-74
2023/01/30 05:49:18;;;;;;;9.02;3.88;;;4.80;92.70;;;;;;7400451;19;19922;-74
2023/01/30 05:51:44;;;;;;;8.38;3.58;;;4.90;92.50;;;;;;7402991;19;19974;-74
2023/01/30 05:54:10;;;;;;;7.65;3.78;;;4.90;92.50;;;;;;7398510;19;19915;-74
2023/01/30 05:56:35;;;;;;;4.70;2.35;;;5.00;92.40;;;;;;7401763;19;20270;-74
2023/01/30 05:59:03;;;;;;;9.65;3.20;;;5.00;92.40;;;;;;7370605;19;19958;-74
2023/01/30 06:01:29;;;;;;;7.88;3.38;;;5.00;92.50;;;;;;7401063;19;19921;-75
2023/01/30 06:03:55;;;;;;;10.25;3.75;;;4.90;92.50;;;;;;7403194;19;19922;-73
2023/01/30 06:06:22;;;;;;;6.93;2.72;;;4.90;92.40;;;;;;7402600;19;19923;-74
2023/01/30 06:08:53;;;;;;;8.85;4.03;;;4.90;92.50;;;;;;7410208;19;19922;-74
2023/01/30 06:11:19;;;;;;;6.63;2.95;;;4.90;92.50;;;;;;7406552;19;19927;-76
2023/01/30 06:13:45;;;;;;;6.70;3.22;;;4.80;92.60;;;;;;7410176;19;19911;-74
2023/01/30 06:16:13;;;;;;;6.68;2.72;;;4.80;92.50;;;;;;7406312;19;19924;-76
2023/01/30 06:18:39;;;;;;;7.30;3.40;;;4.90;92.40;;;;;;7412223;19;19947;-73
2023/01/30 06:21:06;;;;;;;9.88;3.55;;;4.90;92.40;;;;;;7376769;19;19919;-74
2023/01/30 06:23:32;;;;;;;7.15;3.22;;;4.90;92.40;;;;;;7377555;19;20317;-74
2023/01/30 06:25:58;;;;;;;7.10;3.40;;;4.90;92.40;;;;;;7409021;19;19921;-74
2023/01/30 06:28:24;;;;;;;6.05;2.75;;;4.90;92.50;;;;;;7377486;19;19912;-74
2023/01/30 06:30:51;;;;;;;9.40;3.80;;;4.80;92.60;;;;;;7409506;19;19918;-74
2023/01/30 06:33:17;;;;;;;10.52;3.55;;;4.80;92.50;;;;;;7406504;19;19943;-74
2023/01/30 06:35:44;;;;;;;7.30;3.40;;;4.90;92.50;;;;;;7407092;19;19962;-75
2023/01/30 06:38:12;;;;;;;8.10;3.65;;;4.90;92.30;;;;;;7407420;19;19922;-75
2023/01/30 06:40:40;;;;;;;6.82;3.25;;;4.90;92.40;;;;;;7407954;19;19911;-74
2023/01/30 06:43:06;;;;;;;7.85;3.45;;;4.90;92.40;;;;;;7408652;19;19915;-74
2023/01/30 06:45:32;;;;;;;6.78;3.22;;;4.90;92.40;;;;;;7411614;19;20330;-75
2023/01/30 06:47:58;;;;;;;8.13;3.65;;;4.90;92.40;;;;;;7408745;19;19915;-75
2023/01/30 06:50:26;;;;;;;7.32;3.55;;;4.90;92.30;;;;;;7409818;19;19918;-74
2023/01/30 06:52:53;;;;;;;9.65;3.70;;;4.80;92.50;;;;;;7404546;19;19914;-75
2023/01/30 06:55:21;;;;;;;8.38;4.00;;;4.90;92.40;;;;;;7406012;19;19990;-76
2023/01/30 06:57:48;;;;;;;7.50;3.60;;;4.80;92.40;;;;;;7386256;19;19931;-74
2023/01/30 07:00:19;;;;;;;7.85;3.38;;;4.80;92.50;;;;;;7405560;19;19910;-75
2023/01/30 07:02:46;;;;;;;6.40;2.72;;;4.90;92.40;;;;;;7405839;19;19919;-74
2023/01/30 07:05:12;;;;;;;7.00;3.13;;;4.90;92.50;;;;;;7406954;19;19923;-74
2023/01/30 07:07:38;;;;;;;5.85;2.63;;;5.00;92.40;;;;;;7383221;19;19919;-76
2023/01/30 07:10:06;;;;;;;8.80;3.85;;;4.90;92.40;;;;;;7404728;19;19918;-75
2023/01/30 07:12:32;;;;;;;6.05;2.45;;;5.00;92.50;;;;;;7375077;19;19914;-75
2023/01/30 07:14:57;;;;;;;9.23;4.07;;;5.00;92.50;;;;;;7406092;19;20232;-75
2023/01/30 07:17:24;;;;;;;8.35;3.60;;;5.00;92.50;;;;;;7402394;19;19931;-75
2023/01/30 07:19:51;;;;;;;7.10;3.50;;;5.10;92.30;;;;;;7404707;19;19910;-74
2023/01/30 07:22:16;;;;;;;7.10;3.47;;;5.00;92.40;;;;;;7405921;19;19922;-75
2023/01/30 07:24:43;;;;;;;8.60;3.53;;;5.10;92.40;;;;;;7410137;19;19915;-74
2023/01/30 07:27:11;;;;;;;6.40;2.90;;;5.00;92.60;;;;;;7402622;19;19918;-74
2023/01/30 07:29:39;;;;;;;7.28;3.47;;;5.20;92.20;;;;;;7408177;19;20387;-75
2023/01/30 07:32:08;;;;;;;7.88;2.90;;;5.30;92.20;;;;;;7405074;19;19947;-73
2023/01/30 07:34:34;;;;;;;8.93;3.50;;;5.30;92.10;;;;;;7407707;19;19926;-74
2023/01/30 07:36:59;;;;;;;6.75;3.35;;;5.40;92.00;;;;;;7404840;19;20331;-74
2023/01/30 07:39:25;;;;;;;9.30;3.38;;;5.40;92.00;;;;;;7406466;19;19922;-75
2023/01/30 07:41:51;;;;;;;8.10;3.33;;;5.50;91.90;;;;;;7376235;19;19918;-74
2023/01/30 07:44:17;;;;;;;8.65;3.17;;;5.50;91.90;;;;;;7403109;19;19933;-74
2023/01/30 07:46:44;;;;;;;8.75;3.85;;;5.50;91.90;;;;;;7404072;19;19911;-74
2023/01/30 07:49:10;;;;;;;7.95;3.22;;;5.40;92.00;;;;;;7404793;19;19917;-74
2023/01/30 07:51:35;;;;;;;5.53;2.58;;;5.40;91.90;;;;;;7404734;19;20353;-74
2023/01/30 07:54:02;;;;;;;6.57;3.13;;;5.40;92.00;;;;;;7407521;19;19923;-75
2023/01/30 07:56:29;;;;;;;8.23;3.33;;;5.40;92.00;;;;;;7382419;19;19915;-74
2023/01/30 07:58:56;;;;;;;8.70;3.75;;;5.60;92.00;;;;;;7406021;19;19910;-75
2023/01/30 08:01:23;;;;;;;6.95;3.10;;;5.60;91.70;;;;;;7373292;19;20381;-76
2023/01/30 08:03:49;;;;;;;6.95;3.50;;;5.60;91.60;;;;;;7407997;19;19938;-74
2023/01/30 08:06:15;;;;;;;7.68;3.65;;;5.80;91.50;;;;;;7404096;19;19953;-76
2023/01/30 08:08:41;;;;;;;8.10;3.95;;;5.80;91.30;;;;;;7409517;19;19911;-75
2023/01/30 08:11:07;;;;;;;7.93;3.88;;;5.90;91.30;;;;;;7402847;19;19952;-75
2023/01/30 08:13:33;;;;;;;9.63;3.55;;;5.90;91.20;;;;;;7404343;19;19919;-76
2023/01/30 08:16:04;;;;;;;6.60;3.10;;;5.90;91.30;;;;;;7406514;19;19921;-76
2023/01/30 08:18:32;;;;;;;8.65;3.17;;;5.90;91.30;;;;;;7402916;19;19918;-75
2023/01/30 08:21:03;;;;;;;7.60;3.53;;;5.90;91.40;;;;;;7405928;19;19947;-75
2023/01/30 08:23:30;;;;;;;8.38;4.20;;;5.90;91.30;;;;;;7379388;19;19925;-74
2023/01/30 08:25:57;;;;;;;7.45;3.65;;;6.00;91.20;;;;;;7403152;19;19914;-75
2023/01/30 08:28:24;;;;;;;8.48;4.35;;;6.00;91.30;;;;;;7376464;19;19934;-74
2023/01/30 08:30:53;;;;;;;17.33;3.72;;;6.00;91.10;;;;;;7404683;19;19930;-73
2023/01/30 08:33:20;;;;;;;9.18;4.30;;;6.00;91.10;;;;;;7395109;19;19917;-75
2023/01/30 08:35:46;;;;;;;13.73;5.15;;;6.70;91.10;;;;;;7405607;19;19940;-75
2023/01/30 08:38:14;;;;;;;7.55;4.03;;;8.70;88.80;;;;;;7403423;19;19911;-76
2023/01/30 08:40:40;;;;;;;8.15;3.92;;;9.30;86.40;;;;;;7404864;19;19926;-75
2023/01/30 08:43:06;;;;;;;7.25;3.75;;;9.70;84.70;;;;;;7403076;19;20257;-75
2023/01/30 08:45:32;;;;;;;7.70;3.90;;;10.50;83.20;;;;;;7404416;19;19922;-75
2023/01/30 08:48:05;;;;;;;8.35;3.95;;;10.40;83.90;;;;;;7404584;19;19930;-74
2023/01/30 08:50:31;;;;;;;;;;;11.10;81.90;;;;;;7403415;19;19930;-75
2023/01/30 08:53:01;;;;;;;8.45;4.45;;;12.00;82.20;;;;;;7401721;19;19910;-77
2023/01/30 08:55:27;;;;;;;6.82;3.90;;;13.10;79.20;;;;;;7404722;19;19911;-74
2023/01/30 08:57:55;;;;;;;9.10;4.43;;;13.70;78.90;;;;;;7403817;19;19929;-75
2023/01/30 09:00:21;;;;;;;9.27;4.57;;;14.60;76.90;;;;;;7403293;19;19926;-75
2023/01/30 09:02:47;;;;;;;7.65;4.45;;;15.00;75.40;;;;;;7393202;19;19915;-75
2023/01/30 09:05:13;;;;;;;8.10;3.88;;;15.30;75.10;;;;;;7401443;19;19914;-74
2023/01/30 09:07:39;;;;;;;8.98;4.45;;;15.70;74.00;;;;;;7397928;19;19982;-75
2023/01/30 09:10:05;;;;;;;9.52;4.47;;;12.40;75.70;;;;;;7395686;19;20452;-75
2023/01/30 09:12:31;;;;;;;6.90;3.55;;;11.80;77.90;;;;;;7394552;19;19910;-76
2023/01/30 09:14:57;;;;;;;7.53;3.50;;;11.20;79.20;;;;;;7400364;19;19946;-76
2023/01/30 09:17:23;;;;;;;8.10;4.15;;;10.00;80.70;;;;;;7394319;19;19926;-74
2023/01/30 09:19:49;;;;;;;7.45;4.40;;;10.20;81.40;;;;;;7402722;19;20414;-76
2023/01/30 09:22:17;;;;;;;7.82;3.92;;;9.70;81.50;;;;;;7394773;19;19915;-74
2023/01/30 09:24:43;;;;;;;8.32;4.00;;;9.50;81.40;;;;;;7398980;19;19929;-75
2023/01/30 09:27:09;;;;;;;8.18;4.18;;;9.40;81.80;;;;;;7392544;19;20006;-74
2023/01/30 09:29:36;;;;;;;8.10;4.15;;;9.10;82.30;;;;;;7401226;19;19948;-74
2023/01/30 09:32:02;;;;;;;7.60;3.92;;;9.00;82.70;;;;;;7395533;19;20011;-75
2023/01/30 09:34:28;;;;;;;7.25;3.33;;;9.20;82.90;;;;;;7391173;19;20369;-75
2023/01/30 09:36:55;;;;;;;11.00;4.20;;;9.30;82.40;;;;;;7386283;19;19910;-75
2023/01/30 09:39:21;;;;;;;9.05;4.35;;;9.40;82.40;;;;;;7391070;19;19930;-75
2023/01/30 09:41:57;;;;;;;6.95;3.67;;;9.20;82.10;;;;;;7398657;19;19939;-75
2023/01/30 09:44:57;;;;;;;7.22;3.72;;;9.10;82.90;;;;;;7403546;19;20352;-74
2023/01/30 09:47:33;;;;;;;5.82;3.47;;;9.30;82.30;;;;;;7406254;19;19937;-76
2023/01/30 09:50:07;;;;;;;6.03;3.20;;;9.40;82.00;;;;;;7405718;19;19918;-75
2023/01/30 09:53:13;;;;;;;8.02;4.38;;;9.60;81.30;;;;;;7384764;19;19910;-75
2023/01/30 09:55:41;;;;;;;9.45;4.40;;;10.20;80.50;;;;;;7402231;19;19926;-75
2023/01/30 09:58:19;;;;;;;7.38;3.97;;;10.40;80.50;;;;;;7400975;19;19921;-74
2023/01/30 10:00:47;;;;;;;7.28;3.90;;;10.60;79.90;;;;;;7403772;19;19919;-74
2023/01/30 10:03:14;;;;;;;7.40;3.88;;;11.00;79.30;;;;;;7406229;19;19910;-75
2023/01/30 10:05:46;;;;;;;6.60;3.58;;;10.60;79.00;;;;;;7401142;19;19974;-76
2023/01/30 10:08:27;;;;;;;7.55;3.63;;;10.40;79.50;;;;;;7398174;19;19911;-74
2023/01/30 10:11:09;;;;;;;9.20;4.32;;;10.20;79.10;;;;;;7399585;19;19917;-75
2023/01/30 10:13:53;;;;;;;9.73;4.35;;;9.10;81.20;;;;;;7390986;19;20437;-75
2023/01/30 10:16:53;;;;;;;9.57;4.68;;;10.20;81.50;;;;;;7397135;19;19931;-75
2023/01/30 10:19:46;;;;;;;10.55;5.22;;;11.00;79.20;;;;;;7405615;19;19929;-75
2023/01/30 10:22:21;;;;;;;7.97;4.05;;;11.50;78.70;;;;;;7368275;19;19918;-76
2023/01/30 10:24:50;;;;;;;8.05;4.68;;;11.80;78.10;;;;;;7404376;19;19926;-75
2023/01/30 10:27:19;;;;;;;6.55;3.63;;;12.10;77.20;;;;;;7396881;19;19923;-74
2023/01/30 10:29:48;;;;;;;8.05;4.68;;;11.40;77.30;;;;;;7394263;19;19953;-74
2023/01/30 10:32:32;;;;;;;8.32;4.60;;;11.20;78.10;;;;;;7395461;19;19910;-74
2023/01/30 10:35:28;;;;;;;8.90;4.95;;;10.40;78.70;;;;;;7400161;19;19918;-74
2023/01/30 10:38:03;;;;;;;10.05;4.68;;;11.10;79.00;;;;;;7400155;19;19919;-75
2023/01/30 10:40:37;;;;;;;10.88;5.68;;;10.90;79.40;;;;;;7404887;19;19982;-74
2023/01/30 10:43:18;;;;;;;7.85;4.70;;;11.00;79.40;;;;;;7399646;19;19922;-76
2023/01/30 10:46:02;;;;;;;10.13;5.55;;;11.40;79.50;;;;;;7397420;19;19914;-75
2023/01/30 10:49:12;;;;;;;11.00;6.25;;;12.20;77.90;;;;;;7397620;19;19915;-76
2023/01/30 10:52:03;;;;;;;8.23;4.78;;;11.30;78.40;;;;;;7391614;19;19944;-75
2023/01/30 10:54:32;;;;;;;8.70;4.93;;;12.40;77.80;;;;;;7403734;19;19922;-74
2023/01/30 10:57:03;;;;;;;8.77;5.45;;;13.00;76.70;;;;;;7405045;19;20341;-74
2023/01/30 10:59:58;;;;;;;8.68;4.53;;;13.20;76.00;;;;;;7398776;19;20021;-74
2023/01/30 11:02:33;;;;;;;8.73;5.18;;;13.50;75.50;;;;;;7400834;19;19926;-76
2023/01/30 11:05:03;;;;;;;7.65;4.88;;;13.30;75.60;;;;;;7407028;19;19921;-75
2023/01/30 11:07:32;;;;;;;10.70;6.05;;;13.90;75.30;;;;;;7400593;19;19910;-76
2023/01/30 11:10:00;;;;;;;8.55;5.30;;;12.40;76.40;;;;;;7404052;19;19915;-75
2023/01/30 11:12:26;;;;;;;11.18;6.28;;;12.70;76.40;;;;;;7387980;19;20270;-76
2023/01/30 11:15:00;;;;;;;10.10;5.32;;;12.70;75.60;;;;;;7403282;19;19925;-75
2023/01/30 11:17:40;;;;;;;9.98;5.38;;;12.50;77.10;;;;;;7398065;19;20005;-76
2023/01/30 11:20:13;;;;;;;15.30;9.15;;;12.80;76.20;;;;;;7401115;19;20335;-75
2023/01/30 11:22:44;;;;;;;;;;;12.70;76.80;;;;;;7404901;19;19914;-76
2023/01/30 11:25:17;;;;;;;8.93;6.13;;;13.10;75.50;;;;;;7399011;19;19943;-75
2023/01/30 11:27:50;;;;;;;9.95;5.38;;;13.50;75.80;;;;;;7403678;19;20303;-75
2023/01/30 11:30:18;;;;;;;9.60;5.75;;;13.60;75.30;;;;;;7396322;19;19925;-76
2023/01/30 11:32:47;;;;;;;11.18;6.25;;;13.40;75.10;;;;;;7407202;19;20247;-75
2023/01/30 11:35:22;;;;;;;12.63;6.00;;;13.90;75.00;;;;;;7400976;19;19930;-75
2023/01/30 11:37:50;;;;;;;10.98;6.10;;;14.20;74.40;;;;;;7397263;19;19937;-76
2023/01/30 11:40:16;;;;;;;10.45;5.63;;;14.30;73.80;;;;;;7396836;19;19914;-75
2023/01/30 11:42:47;;;;;;;9.77;5.30;;;13.20;74.20;;;;;;7403066;19;19933;-75
2023/01/30 11:45:14;;;;;;;9.50;5.70;;;13.00;74.90;;;;;;7396798;19;19944;-75
2023/01/30 11:47:50;;;;;;;10.40;6.35;;;12.90;74.90;;;;;;7397024;19;19914;-74
2023/01/30 11:50:18;;;;;;;13.57;6.35;;;13.80;74.70;;;;;;7402471;19;19922;-77
2023/01/30 11:52:45;;;;;;;8.82;5.25;;;14.30;74.20;;;;;;7395167;19;19934;-76
2023/01/30 11:55:17;;;;;;;11.68;5.70;;;12.90;74.00;;;;;;7402797;19;19918;-76
2023/01/30 11:57:57;;;;;;;9.13;5.40;;;13.20;74.30;;;;;;7403410;19;20470;-76
2023/01/30 12:00:29;;;;;;;10.80;6.20;;;13.60;74.30;;;;;;7397231;19;20402;-75
2023/01/30 12:03:08;;;;;;;10.55;6.05;;;14.30;73.60;;;;;;7397824;19;19941;-74
2023/01/30 12:05:43;;;;;;;11.10;6.10;;;15.50;73.20;;;;;;7395686;19;19919;-76
2023/01/30 12:08:19;;;;;;;8.65;5.75;;;15.00;71.40;;;;;;7397341;19;19929;-75
2023/01/30 12:11:00;;;;;;;11.05;6.03;;;15.40;71.00;;;;;;7403104;19;19921;-75
2023/01/30 12:14:02;;;;;;;10.45;6.25;;;13.80;72.70;;;;;;7395014;19;19952;-75
2023/01/30 12:16:43;;;;;;;9.52;5.53;;;14.00;72.60;;;;;;7391549;19;20372;-74
2023/01/30 12:19:28;;;;;;;9.95;5.50;;;14.20;72.60;;;;;;7396761;19;19926;-75
2023/01/30 12:21:59;;;;;;;9.10;4.88;;;13.90;72.30;;;;;;7398798;19;19938;-76
2023/01/30 12:24:37;;;;;;;9.93;4.97;;;13.90;73.00;;;;;;7382502;19;19930;-77
2023/01/30 12:27:23;;;;;;;8.88;4.85;;;13.60;74.10;;;;;;7400071;19;19925;-75
2023/01/30 12:30:16;;;;;;;7.82;5.10;;;13.70;73.90;;;;;;7400498;19;19941;-75
2023/01/30 12:32:43;;;;;;;10.35;5.07;;;13.60;73.90;;;;;;7395707;19;19922;-76
2023/01/30 12:35:15;;;;;;;8.98;5.03;;;13.60;73.60;;;;;;7396068;19;19919;-75
2023/01/30 12:38:03;;;;;;;8.73;4.75;;;14.50;72.80;;;;;;7399311;19;19936;-75
2023/01/30 12:40:48;;;;;;;9.65;4.97;;;13.90;72.80;;;;;;7386296;19;19915;-75
2023/01/30 12:43:14;;;;;;;;;;;13.20;73.30;;;;;;7404363;19;19918;-74
2023/01/30 12:46:06;;;;;;;8.75;4.78;;;13.90;72.90;;;;;;7396433;19;19946;-76
2023/01/30 12:48:47;;;;;;;8.40;4.40;;;14.10;73.50;;;;;;7398000;19;20371;-77
2023/01/30 12:51:43;;;;;;;6.32;3.58;;;13.60;72.00;;;;;;7402272;19;19923;-74
2023/01/30 12:54:23;;;;;;;9.95;4.63;;;13.70;72.20;;;;;;7396357;19;19934;-74
2023/01/30 12:57:02;;;;;;;9.05;4.75;;;14.80;71.50;;;;;;7391868;19;19919;-76
2023/01/30 12:59:58;;;;;;;7.68;4.55;;;14.90;71.50;;;;;;7393018;19;19930;-76
2023/01/30 13:02:33;;;;;;;9.73;4.85;;;15.40;70.60;;;;;;7390896;19;19922;-74
2023/01/30 13:05:20;;;;;;;7.53;4.72;;;15.10;70.70;;;;;;7397501;19;19922;-75
2023/01/30 13:08:15;;;;;;;8.35;4.43;;;15.60;70.60;;;;;;7393014;19;19922;-74
2023/01/30 13:11:01;;;;;;;8.32;4.20;;;15.10;70.20;;;;;;7397366;19;19915;-75
2023/01/30 13:13:41;;;;;;;7.65;4.93;;;15.20;69.30;;;;;;7402283;19;19923;-74
2023/01/30 13:16:29;;;;;;;12.30;4.07;;;16.20;69.40;;;;;;7399070;19;19915;-75
2023/01/30 13:18:59;;;;;;;6.57;3.95;;;16.50;68.60;;;;;;7400623;19;19922;-79
2023/01/30 13:21:30;;;;;;;8.85;4.35;;;15.70;68.50;;;;;;7401878;19;19922;-75
2023/01/30 13:24:21;;;;;;;9.20;4.40;;;15.10;68.30;;;;;;7385930;19;19937;-76